sensor_id;sensor_type;location;lat;lon;timestamp;temperature;humidity
39315;DHT22;28703;44.412;11.918;2023-02-28T00:00:40;7.10;99.90
39315;DHT22;28703;44.412;11.918;2023-02-28T00:03:06;7.00;99.90
39315;DHT22;28703;44.412;11.918;2023-02-28T00:05:33;7.00;99.90
39315;DHT22;28703;44.412;11.918;2023-02-28T00:07:59;7.00;99.90
39315;DHT22;28703;44.412;11.918;2023-02-28T00:10:27;6.90;99.90
39315;DHT22;28703;44.412;11.918;2023-02-28T00:12:55;6.90;99.90
39315;DHT22;28703;44.412;11.918;2023-02-28T00:15:22;6.80;99.90
39315;DHT22;28703;44.412;11.918;2023-02-28T00:17:49;6.80;99.90
39315;DHT22;28703;44.412;11.918;2023-02-28T00:20:15;6.80;99.90
39315;DHT22;28703;44.412;11.918;2023-02-28T00:22:43;6.70;99.90
39315;DHT22;28703;44.412;11.918;2023-02-28T00:25:12;6.70;99.90
39315;DHT22;28703;44.412;11.918;2023-02-28T00:27:39;6.70;99.90
39315;DHT22;28703;44.412;11.918;2023-02-28T00:30:07;6.70;99.90
39315;DHT22;28703;44.412;11.918;2023-02-28T00:32:34;6.70;99.90
39315;DHT22;28703;44.412;11.918;2023-02-28T00:35:01;6.70;99.90
39315;DHT22;28703;44.412;11.918;2023-02-28T00:37:27;6.60;99.90
39315;DHT22;28703;44.412;11.918;2023-02-28T00:39:52;6.60;99.90
39315;DHT22;28703;44.412;11.918;2023-02-28T00:42:18;6.70;99.90
39315;DHT22;28703;44.412;11.918;2023-02-28T00:44:47;6.60;99.90
39315;DHT22;28703;44.412;11.918;2023-02-28T00:47:12;6.60;99.90
39315;DHT22;28703;44.412;11.918;2023-02-28T00:49:38;6.70;99.90
39315;DHT22;28703;44.412;11.918;2023-02-28T00:52:04;6.60;99.90
39315;DHT22;28703;44.412;11.918;2023-02-28T00:54:30;6.60;99.90
39315;DHT22;28703;44.412;11.918;2023-02-28T00:56:56;6.60;99.90
39315;DHT22;28703;44.412;11.918;2023-02-28T00:59:22;6.60;99.90
39315;DHT22;28703;44.412;11.918;2023-02-28T01:01:48;6.60;99.90
39315;DHT22;28703;44.412;11.918;2023-02-28T01:04:14;6.60;99.90
39315;DHT22;28703;44.412;11.918;2023-02-28T01:06:40;6.60;99.90
39315;DHT22;28703;44.412;11.918;2023-02-28T01:09:10;6.60;99.90
39315;DHT22;28703;44.412;11.918;2023-02-28T01:11:36;6.60;99.90
39315;DHT22;28703;44.412;11.918;2023-02-28T01:14:02;6.50;99.90
39315;DHT22;28703;44.412;11.918;2023-02-28T01:16:29;6.50;99.90
39315;DHT22;28703;44.412;11.918;2023-02-28T01:18:56;6.50;99.90
39315;DHT22;28703;44.412;11.918;2023-02-28T01:21:22;6.40;99.90
39315;DHT22;28703;44.412;11.918;2023-02-28T01:23:48;6.40;99.90
39315;DHT22;28703;44.412;11.918;2023-02-28T01:26:20;6.30;99.90
39315;DHT22;28703;44.412;11.918;2023-02-28T01:28:47;6.30;99.90
39315;DHT22;28703;44.412;11.918;2023-02-28T01:31:14;6.20;99.90
39315;DHT22;28703;44.412;11.918;2023-02-28T01:33:40;6.20;99.90
39315;DHT22;28703;44.412;11.918;2023-02-28T01:36:15;6.20;99.90
39315;DHT22;28703;44.412;11.918;2023-02-28T01:38:42;6.30;99.90
39315;DHT22;28703;44.412;11.918;2023-02-28T01:41:09;6.20;99.90
39315;DHT22;28703;44.412;11.918;2023-02-28T01:46:09;6.20;99.90
39315;DHT22;28703;44.412;11.918;2023-02-28T01:48:38;6.10;99.90
39315;DHT22;28703;44.412;11.918;2023-02-28T01:51:10;6.10;99.90
39315;DHT22;28703;44.412;11.918;2023-02-28T01:53:41;6.10;99.90
39315;DHT22;28703;44.412;11.918;2023-02-28T01:56:10;6.20;99.90
39315;DHT22;28703;44.412;11.918;2023-02-28T01:58:37;6.10;99.90
39315;DHT22;28703;44.412;11.918;2023-02-28T02:01:03;6.20;99.90
39315;DHT22;28703;44.412;11.918;2023-02-28T02:03:30;6.20;99.90
39315;DHT22;28703;44.412;11.918;2023-02-28T02:05:56;6.20;99.90
39315;DHT22;28703;44.412;11.918;2023-02-28T02:08:28;6.20;99.90
39315;DHT22;28703;44.412;11.918;2023-02-28T02:11:00;6.20;99.90
39315;DHT22;28703;44.412;11.918;2023-02-28T02:14:00;6.20;99.90
39315;DHT22;28703;44.412;11.918;2023-02-28T02:39:05;6.20;99.90
39315;DHT22;28703;44.412;11.918;2023-02-28T02:41:48;6.20;99.90
39315;DHT22;28703;44.412;11.918;2023-02-28T02:44:21;6.10;99.90
39315;DHT22;28703;44.412;11.918;2023-02-28T02:46:51;6.00;99.90
39315;DHT22;28703;44.412;11.918;2023-02-28T02:49:26;6.00;99.90
39315;DHT22;28703;44.412;11.918;2023-02-28T02:51:55;6.00;99.90
39315;DHT22;28703;44.412;11.918;2023-02-28T02:54:31;6.00;99.90
39315;DHT22;28703;44.412;11.918;2023-02-28T02:57:01;5.90;99.90
39315;DHT22;28703;44.412;11.918;2023-02-28T02:59:30;5.90;99.90
39315;DHT22;28703;44.412;11.918;2023-02-28T03:02:00;5.90;99.90
39315;DHT22;28703;44.412;11.918;2023-02-28T03:04:34;5.80;99.90
39315;DHT22;28703;44.412;11.918;2023-02-28T03:07:00;5.70;99.90
39315;DHT22;28703;44.412;11.918;2023-02-28T03:09:26;5.70;99.90
39315;DHT22;28703;44.412;11.918;2023-02-28T03:11:55;5.80;99.90
39315;DHT22;28703;44.412;11.918;2023-02-28T03:17:31;5.90;99.90
39315;DHT22;28703;44.412;11.918;2023-02-28T03:25:27;5.70;99.90
39315;DHT22;28703;44.412;11.918;2023-02-28T03:28:13;5.70;99.90
39315;DHT22;28703;44.412;11.918;2023-02-28T03:31:21;5.70;99.90
39315;DHT22;28703;44.412;11.918;2023-02-28T03:34:16;5.70;99.90
39315;DHT22;28703;44.412;11.918;2023-02-28T03:36:57;5.70;99.90
39315;DHT22;28703;44.412;11.918;2023-02-28T03:39:31;5.70;99.90
39315;DHT22;28703;44.412;11.918;2023-02-28T03:42:02;5.70;99.90
39315;DHT22;28703;44.412;11.918;2023-02-28T03:44:33;5.60;99.90
39315;DHT22;28703;44.412;11.918;2023-02-28T03:47:06;5.60;99.90
39315;DHT22;28703;44.412;11.918;2023-02-28T03:52:21;5.70;99.90
39315;DHT22;28703;44.412;11.918;2023-02-28T03:54:51;5.70;99.90
39315;DHT22;28703;44.412;11.918;2023-02-28T04:00:14;5.80;99.90
39315;DHT22;28703;44.412;11.918;2023-02-28T04:02:43;5.70;99.90
39315;DHT22;28703;44.412;11.918;2023-02-28T04:05:09;5.70;99.90
39315;DHT22;28703;44.412;11.918;2023-02-28T04:07:35;5.80;99.90
39315;DHT22;28703;44.412;11.918;2023-02-28T04:10:01;5.80;99.90
39315;DHT22;28703;44.412;11.918;2023-02-28T04:12:27;5.90;99.90
39315;DHT22;28703;44.412;11.918;2023-02-28T04:14:52;5.90;99.90
39315;DHT22;28703;44.412;11.918;2023-02-28T04:17:18;5.80;99.90
39315;DHT22;28703;44.412;11.918;2023-02-28T04:19:44;5.80;99.90
39315;DHT22;28703;44.412;11.918;2023-02-28T04:22:10;5.80;99.90
39315;DHT22;28703;44.412;11.918;2023-02-28T04:24:36;5.80;99.90
39315;DHT22;28703;44.412;11.918;2023-02-28T04:27:02;5.80;99.90
39315;DHT22;28703;44.412;11.918;2023-02-28T04:29:30;5.80;99.90
39315;DHT22;28703;44.412;11.918;2023-02-28T04:31:57;5.70;99.90
39315;DHT22;28703;44.412;11.918;2023-02-28T04:34:23;5.70;99.90
39315;DHT22;28703;44.412;11.918;2023-02-28T04:36:50;5.70;99.90
39315;DHT22;28703;44.412;11.918;2023-02-28T04:39:19;5.70;99.90
39315;DHT22;28703;44.412;11.918;2023-02-28T04:41:45;5.70;99.90
39315;DHT22;28703;44.412;11.918;2023-02-28T04:44:12;5.60;99.90
39315;DHT22;28703;44.412;11.918;2023-02-28T04:46:38;5.60;99.90
39315;DHT22;28703;44.412;11.918;2023-02-28T04:49:03;5.60;99.90
39315;DHT22;28703;44.412;11.918;2023-02-28T04:51:29;5.60;99.90
39315;DHT22;28703;44.412;11.918;2023-02-28T04:53:55;5.70;99.90
39315;DHT22;28703;44.412;11.918;2023-02-28T04:56:21;5.70;99.90
39315;DHT22;28703;44.412;11.918;2023-02-28T04:58:48;5.80;99.90
39315;DHT22;28703;44.412;11.918;2023-02-28T05:01:28;5.80;99.90
39315;DHT22;28703;44.412;11.918;2023-02-28T05:03:56;5.70;99.90
39315;DHT22;28703;44.412;11.918;2023-02-28T05:06:24;5.70;99.90
39315;DHT22;28703;44.412;11.918;2023-02-28T05:08:51;5.70;99.90
39315;DHT22;28703;44.412;11.918;2023-02-28T05:11:22;5.70;99.90
39315;DHT22;28703;44.412;11.918;2023-02-28T05:13:50;5.70;99.90
39315;DHT22;28703;44.412;11.918;2023-02-28T05:16:17;5.70;99.90
39315;DHT22;28703;44.412;11.918;2023-02-28T05:18:43;5.80;99.90
39315;DHT22;28703;44.412;11.918;2023-02-28T05:21:33;5.70;99.90
39315;DHT22;28703;44.412;11.918;2023-02-28T05:24:05;5.80;99.90
39315;DHT22;28703;44.412;11.918;2023-02-28T05:26:34;5.70;99.90
39315;DHT22;28703;44.412;11.918;2023-02-28T05:29:00;5.70;99.90
39315;DHT22;28703;44.412;11.918;2023-02-28T05:31:26;5.70;99.90
39315;DHT22;28703;44.412;11.918;2023-02-28T05:33:52;5.70;99.90
39315;DHT22;28703;44.412;11.918;2023-02-28T05:36:18;5.70;99.90
39315;DHT22;28703;44.412;11.918;2023-02-28T05:38:48;5.70;99.90
39315;DHT22;28703;44.412;11.918;2023-02-28T05:41:15;5.70;99.90
39315;DHT22;28703;44.412;11.918;2023-02-28T05:43:41;5.80;99.90
39315;DHT22;28703;44.412;11.918;2023-02-28T05:46:09;5.80;99.90
39315;DHT22;28703;44.412;11.918;2023-02-28T05:48:47;5.90;99.90
39315;DHT22;28703;44.412;11.918;2023-02-28T05:51:13;5.90;99.90
39315;DHT22;28703;44.412;11.918;2023-02-28T05:53:39;5.90;99.90
39315;DHT22;28703;44.412;11.918;2023-02-28T05:56:05;5.90;99.90
39315;DHT22;28703;44.412;11.918;2023-02-28T05:58:31;5.90;99.90
39315;DHT22;28703;44.412;11.918;2023-02-28T06:01:01;5.90;99.90
39315;DHT22;28703;44.412;11.918;2023-02-28T06:03:44;6.00;99.90
39315;DHT22;28703;44.412;11.918;2023-02-28T06:06:10;6.00;99.90
39315;DHT22;28703;44.412;11.918;2023-02-28T06:08:35;6.10;99.90
39315;DHT22;28703;44.412;11.918;2023-02-28T06:11:04;6.10;99.90
39315;DHT22;28703;44.412;11.918;2023-02-28T06:13:31;6.00;99.90
39315;DHT22;28703;44.412;11.918;2023-02-28T06:15:57;6.00;99.90
39315;DHT22;28703;44.412;11.918;2023-02-28T06:18:25;6.00;99.90
39315;DHT22;28703;44.412;11.918;2023-02-28T06:20:55;5.90;99.90
39315;DHT22;28703;44.412;11.918;2023-02-28T06:23:21;5.90;99.90
39315;DHT22;28703;44.412;11.918;2023-02-28T06:25:47;5.90;99.90
39315;DHT22;28703;44.412;11.918;2023-02-28T06:28:13;5.90;99.90
39315;DHT22;28703;44.412;11.918;2023-02-28T06:30:39;5.90;99.90
39315;DHT22;28703;44.412;11.918;2023-02-28T06:33:05;6.00;99.90
39315;DHT22;28703;44.412;11.918;2023-02-28T06:35:31;6.00;99.90
39315;DHT22;28703;44.412;11.918;2023-02-28T06:37:57;6.10;99.90
39315;DHT22;28703;44.412;11.918;2023-02-28T06:40:23;6.00;99.90
39315;DHT22;28703;44.412;11.918;2023-02-28T06:42:49;5.90;99.90
39315;DHT22;28703;44.412;11.918;2023-02-28T06:45:15;5.80;99.90
39315;DHT22;28703;44.412;11.918;2023-02-28T06:47:41;5.90;99.90
39315;DHT22;28703;44.412;11.918;2023-02-28T06:50:10;5.90;99.90
39315;DHT22;28703;44.412;11.918;2023-02-28T06:52:36;6.00;99.90
39315;DHT22;28703;44.412;11.918;2023-02-28T06:55:06;6.10;99.90
39315;DHT22;28703;44.412;11.918;2023-02-28T06:57:33;6.10;99.90
39315;DHT22;28703;44.412;11.918;2023-02-28T07:00:00;6.10;99.90
39315;DHT22;28703;44.412;11.918;2023-02-28T07:02:27;6.00;99.90
39315;DHT22;28703;44.412;11.918;2023-02-28T07:04:53;5.90;99.90
39315;DHT22;28703;44.412;11.918;2023-02-28T07:07:19;6.00;99.90
39315;DHT22;28703;44.412;11.918;2023-02-28T07:09:45;5.90;99.90
39315;DHT22;28703;44.412;11.918;2023-02-28T07:12:11;5.90;99.90
39315;DHT22;28703;44.412;11.918;2023-02-28T07:14:37;6.00;99.90
39315;DHT22;28703;44.412;11.918;2023-02-28T07:17:03;6.00;99.90
39315;DHT22;28703;44.412;11.918;2023-02-28T07:19:29;6.10;99.90
39315;DHT22;28703;44.412;11.918;2023-02-28T07:21:55;6.10;99.90
39315;DHT22;28703;44.412;11.918;2023-02-28T07:24:21;6.00;99.90
39315;DHT22;28703;44.412;11.918;2023-02-28T07:26:49;6.00;99.90
39315;DHT22;28703;44.412;11.918;2023-02-28T07:29:15;5.90;99.90
39315;DHT22;28703;44.412;11.918;2023-02-28T07:31:40;6.00;99.90
39315;DHT22;28703;44.412;11.918;2023-02-28T07:34:06;6.10;99.90
39315;DHT22;28703;44.412;11.918;2023-02-28T07:36:32;6.00;99.90
39315;DHT22;28703;44.412;11.918;2023-02-28T07:38:58;6.00;99.90
39315;DHT22;28703;44.412;11.918;2023-02-28T07:41:24;6.00;99.90
39315;DHT22;28703;44.412;11.918;2023-02-28T07:43:54;6.00;99.90
39315;DHT22;28703;44.412;11.918;2023-02-28T07:46:21;6.00;99.90
39315;DHT22;28703;44.412;11.918;2023-02-28T07:48:47;6.00;99.90
39315;DHT22;28703;44.412;11.918;2023-02-28T07:51:13;6.00;99.90
39315;DHT22;28703;44.412;11.918;2023-02-28T07:53:39;6.10;99.90
39315;DHT22;28703;44.412;11.918;2023-02-28T07:56:05;6.00;99.90
39315;DHT22;28703;44.412;11.918;2023-02-28T07:58:31;6.00;99.90
39315;DHT22;28703;44.412;11.918;2023-02-28T08:00:57;5.90;99.90
39315;DHT22;28703;44.412;11.918;2023-02-28T08:03:30;6.00;99.90
39315;DHT22;28703;44.412;11.918;2023-02-28T08:05:56;6.00;99.90
39315;DHT22;28703;44.412;11.918;2023-02-28T08:08:21;6.10;99.90
39315;DHT22;28703;44.412;11.918;2023-02-28T08:10:47;6.10;99.90
39315;DHT22;28703;44.412;11.918;2023-02-28T08:13:13;6.00;99.90
39315;DHT22;28703;44.412;11.918;2023-02-28T08:15:41;6.00;99.90
39315;DHT22;28703;44.412;11.918;2023-02-28T08:18:08;6.10;99.90
39315;DHT22;28703;44.412;11.918;2023-02-28T08:20:34;6.00;99.90
39315;DHT22;28703;44.412;11.918;2023-02-28T08:23:00;6.00;99.90
39315;DHT22;28703;44.412;11.918;2023-02-28T08:25:26;6.10;99.90
39315;DHT22;28703;44.412;11.918;2023-02-28T08:27:52;6.10;99.90
39315;DHT22;28703;44.412;11.918;2023-02-28T08:30:18;6.10;99.90
39315;DHT22;28703;44.412;11.918;2023-02-28T08:32:44;6.10;99.90
39315;DHT22;28703;44.412;11.918;2023-02-28T08:35:09;6.10;99.90
39315;DHT22;28703;44.412;11.918;2023-02-28T08:37:36;6.10;99.90
39315;DHT22;28703;44.412;11.918;2023-02-28T08:40:01;6.10;99.90
39315;DHT22;28703;44.412;11.918;2023-02-28T08:42:29;6.20;99.90
39315;DHT22;28703;44.412;11.918;2023-02-28T08:44:55;6.20;99.90
39315;DHT22;28703;44.412;11.918;2023-02-28T08:47:22;6.20;99.90
39315;DHT22;28703;44.412;11.918;2023-02-28T08:49:47;6.30;99.90
39315;DHT22;28703;44.412;11.918;2023-02-28T08:52:13;6.30;99.90
39315;DHT22;28703;44.412;11.918;2023-02-28T08:54:39;6.30;99.90
39315;DHT22;28703;44.412;11.918;2023-02-28T08:57:05;6.40;99.90
39315;DHT22;28703;44.412;11.918;2023-02-28T08:59:32;6.40;99.90
39315;DHT22;28703;44.412;11.918;2023-02-28T09:01:58;6.50;99.90
39315;DHT22;28703;44.412;11.918;2023-02-28T09:04:23;6.60;99.90
39315;DHT22;28703;44.412;11.918;2023-02-28T09:06:50;6.60;99.90
39315;DHT22;28703;44.412;11.918;2023-02-28T09:09:18;6.70;99.90
39315;DHT22;28703;44.412;11.918;2023-02-28T09:11:44;6.80;99.90
39315;DHT22;28703;44.412;11.918;2023-02-28T09:14:10;6.80;99.90
39315;DHT22;28703;44.412;11.918;2023-02-28T09:16:36;6.90;99.90
39315;DHT22;28703;44.412;11.918;2023-02-28T09:19:02;6.90;99.90
39315;DHT22;28703;44.412;11.918;2023-02-28T09:21:28;7.00;99.90
39315;DHT22;28703;44.412;11.918;2023-02-28T09:23:54;7.10;99.90
39315;DHT22;28703;44.412;11.918;2023-02-28T09:27:06;7.20;99.90
39315;DHT22;28703;44.412;11.918;2023-02-28T09:29:36;7.30;99.90
39315;DHT22;28703;44.412;11.918;2023-02-28T09:32:05;7.50;99.90
39315;DHT22;28703;44.412;11.918;2023-02-28T09:34:36;7.70;99.90
39315;DHT22;28703;44.412;11.918;2023-02-28T09:37:05;7.80;99.90
39315;DHT22;28703;44.412;11.918;2023-02-28T09:39:38;8.00;99.90
39315;DHT22;28703;44.412;11.918;2023-02-28T09:42:04;8.10;99.90
39315;DHT22;28703;44.412;11.918;2023-02-28T09:44:42;8.30;99.90
39315;DHT22;28703;44.412;11.918;2023-02-28T09:47:26;8.40;99.90
39315;DHT22;28703;44.412;11.918;2023-02-28T09:49:56;8.50;99.90
39315;DHT22;28703;44.412;11.918;2023-02-28T09:52:49;8.50;99.90
39315;DHT22;28703;44.412;11.918;2023-02-28T09:55:24;8.60;99.90
39315;DHT22;28703;44.412;11.918;2023-02-28T09:57:54;8.60;99.90
39315;DHT22;28703;44.412;11.918;2023-02-28T10:00:30;8.80;99.90
39315;DHT22;28703;44.412;11.918;2023-02-28T10:09:01;9.00;99.90
39315;DHT22;28703;44.412;11.918;2023-02-28T10:11:33;9.10;99.90
39315;DHT22;28703;44.412;11.918;2023-02-28T10:14:20;9.20;99.90
39315;DHT22;28703;44.412;11.918;2023-02-28T10:20:21;9.20;99.90
39315;DHT22;28703;44.412;11.918;2023-02-28T10:25:37;9.40;99.90
39315;DHT22;28703;44.412;11.918;2023-02-28T10:28:11;9.40;99.90
39315;DHT22;28703;44.412;11.918;2023-02-28T10:30:41;9.40;99.90
39315;DHT22;28703;44.412;11.918;2023-02-28T10:33:20;9.50;99.90
39315;DHT22;28703;44.412;11.918;2023-02-28T10:35:47;9.50;99.90
39315;DHT22;28703;44.412;11.918;2023-02-28T10:38:20;9.60;99.90
39315;DHT22;28703;44.412;11.918;2023-02-28T10:40:47;9.60;99.90
39315;DHT22;28703;44.412;11.918;2023-02-28T10:45:40;9.60;99.90
39315;DHT22;28703;44.412;11.918;2023-02-28T10:53:24;9.70;99.90
39315;DHT22;28703;44.412;11.918;2023-02-28T10:58:47;9.70;99.90
39315;DHT22;28703;44.412;11.918;2023-02-28T11:04:03;9.80;99.90
39315;DHT22;28703;44.412;11.918;2023-02-28T11:06:35;9.80;99.90
39315;DHT22;28703;44.412;11.918;2023-02-28T11:09:05;9.80;99.90
39315;DHT22;28703;44.412;11.918;2023-02-28T11:11:43;9.80;99.90
39315;DHT22;28703;44.412;11.918;2023-02-28T11:14:25;9.80;99.90
39315;DHT22;28703;44.412;11.918;2023-02-28T11:16:54;9.80;99.90
39315;DHT22;28703;44.412;11.918;2023-02-28T11:19:40;9.80;99.90
39315;DHT22;28703;44.412;11.918;2023-02-28T11:22:10;9.80;99.90
39315;DHT22;28703;44.412;11.918;2023-02-28T11:24:44;9.90;99.90
39315;DHT22;28703;44.412;11.918;2023-02-28T11:27:45;9.90;99.90
39315;DHT22;28703;44.412;11.918;2023-02-28T11:30:24;9.90;99.90
39315;DHT22;28703;44.412;11.918;2023-02-28T11:32:53;9.90;99.90
39315;DHT22;28703;44.412;11.918;2023-02-28T11:35:33;9.90;99.90
39315;DHT22;28703;44.412;11.918;2023-02-28T11:38:01;9.90;99.90
39315;DHT22;28703;44.412;11.918;2023-02-28T11:46:11;9.90;99.90
39315;DHT22;28703;44.412;11.918;2023-02-28T11:49:12;10.00;99.90
39315;DHT22;28703;44.412;11.918;2023-02-28T11:52:01;10.00;99.90
39315;DHT22;28703;44.412;11.918;2023-02-28T11:57:30;10.00;99.90
39315;DHT22;28703;44.412;11.918;2023-02-28T12:00:25;10.00;99.90
39315;DHT22;28703;44.412;11.918;2023-02-28T12:03:31;10.00;99.90
39315;DHT22;28703;44.412;11.918;2023-02-28T12:09:04;9.90;99.90
39315;DHT22;28703;44.412;11.918;2023-02-28T12:11:56;9.90;99.90
39315;DHT22;28703;44.412;11.918;2023-02-28T12:17:43;9.90;99.90
39315;DHT22;28703;44.412;11.918;2023-02-28T12:20:32;9.90;99.90
39315;DHT22;28703;44.412;11.918;2023-02-28T12:30:04;9.90;99.90
39315;DHT22;28703;44.412;11.918;2023-02-28T12:32:09;9.90;99.90
39315;DHT22;28703;44.412;11.918;2023-02-28T12:34:39;9.90;99.90
39315;DHT22;28703;44.412;11.918;2023-02-28T12:37:17;9.80;99.90
39315;DHT22;28703;44.412;11.918;2023-02-28T12:39:51;9.70;99.90
39315;DHT22;28703;44.412;11.918;2023-02-28T12:42:29;9.60;99.90
39315;DHT22;28703;44.412;11.918;2023-02-28T12:45:02;9.40;99.90
39315;DHT22;28703;44.412;11.918;2023-02-28T12:47:34;9.40;99.90
39315;DHT22;28703;44.412;11.918;2023-02-28T12:50:10;9.10;99.90
39315;DHT22;28703;44.412;11.918;2023-02-28T12:52:58;9.10;99.90
39315;DHT22;28703;44.412;11.918;2023-02-28T12:58:41;8.90;99.90
39315;DHT22;28703;44.412;11.918;2023-02-28T13:10:10;8.80;99.90
39315;DHT22;28703;44.412;11.918;2023-02-28T13:12:53;8.70;99.90
39315;DHT22;28703;44.412;11.918;2023-02-28T13:15:27;8.70;99.90
39315;DHT22;28703;44.412;11.918;2023-02-28T13:17:59;8.80;99.90
39315;DHT22;28703;44.412;11.918;2023-02-28T13:20:33;8.80;99.90
39315;DHT22;28703;44.412;11.918;2023-02-28T13:22:59;8.80;99.90
39315;DHT22;28703;44.412;11.918;2023-02-28T13:28:11;8.80;99.90
39315;DHT22;28703;44.412;11.918;2023-02-28T13:33:36;8.70;99.90
39315;DHT22;28703;44.412;11.918;2023-02-28T13:38:46;8.80;99.90
39315;DHT22;28703;44.412;11.918;2023-02-28T13:41:42;8.80;99.90
39315;DHT22;28703;44.412;11.918;2023-02-28T13:49:27;8.70;99.90
39315;DHT22;28703;44.412;11.918;2023-02-28T14:01:07;8.70;99.90
39315;DHT22;28703;44.412;11.918;2023-02-28T14:04:14;8.60;99.90
39315;DHT22;28703;44.412;11.918;2023-02-28T14:06:51;8.60;99.90
39315;DHT22;28703;44.412;11.918;2023-02-28T14:09:34;8.60;99.90
39315;DHT22;28703;44.412;11.918;2023-02-28T14:18:05;8.60;99.90
39315;DHT22;28703;44.412;11.918;2023-02-28T14:20:43;8.60;99.90
39315;DHT22;28703;44.412;11.918;2023-02-28T14:23:26;8.50;99.90
39315;DHT22;28703;44.412;11.918;2023-02-28T14:26:19;8.50;99.90
39315;DHT22;28703;44.412;11.918;2023-02-28T14:31:52;8.60;99.90
39315;DHT22;28703;44.412;11.918;2023-02-28T14:39:36;8.40;99.90
39315;DHT22;28703;44.412;11.918;2023-02-28T14:42:29;8.30;99.90
39315;DHT22;28703;44.412;11.918;2023-02-28T14:44:56;8.30;99.90
39315;DHT22;28703;44.412;11.918;2023-02-28T14:47:25;8.30;99.90
39315;DHT22;28703;44.412;11.918;2023-02-28T14:49:53;8.40;99.90
39315;DHT22;28703;44.412;11.918;2023-02-28T14:52:22;8.30;99.90
39315;DHT22;28703;44.412;11.918;2023-02-28T14:55:01;8.30;99.90
39315;DHT22;28703;44.412;11.918;2023-02-28T14:57:31;8.30;99.90
39315;DHT22;28703;44.412;11.918;2023-02-28T15:02:30;8.40;99.90
39315;DHT22;28703;44.412;11.918;2023-02-28T15:04:59;8.40;99.90
39315;DHT22;28703;44.412;11.918;2023-02-28T15:07:26;8.40;99.90
39315;DHT22;28703;44.412;11.918;2023-02-28T15:10:19;8.40;99.90
39315;DHT22;28703;44.412;11.918;2023-02-28T15:12:57;8.50;99.90
39315;DHT22;28703;44.412;11.918;2023-02-28T15:18:03;8.50;99.90
39315;DHT22;28703;44.412;11.918;2023-02-28T15:20:30;8.40;99.90
39315;DHT22;28703;44.412;11.918;2023-02-28T15:22:57;8.40;99.90
39315;DHT22;28703;44.412;11.918;2023-02-28T15:25:27;8.40;99.90
39315;DHT22;28703;44.412;11.918;2023-02-28T15:27:55;8.40;99.90
39315;DHT22;28703;44.412;11.918;2023-02-28T15:30:29;8.30;99.90
39315;DHT22;28703;44.412;11.918;2023-02-28T15:35:45;8.30;99.90
39315;DHT22;28703;44.412;11.918;2023-02-28T15:38:24;8.20;99.90
39315;DHT22;28703;44.412;11.918;2023-02-28T15:40:55;8.30;99.90
39315;DHT22;28703;44.412;11.918;2023-02-28T15:43:27;8.30;99.90
39315;DHT22;28703;44.412;11.918;2023-02-28T15:46:22;8.30;99.90
39315;DHT22;28703;44.412;11.918;2023-02-28T15:48:51;8.40;99.90
39315;DHT22;28703;44.412;11.918;2023-02-28T15:51:56;8.50;99.90
39315;DHT22;28703;44.412;11.918;2023-02-28T15:54:22;8.50;99.90
39315;DHT22;28703;44.412;11.918;2023-02-28T15:56:51;8.50;99.90
39315;DHT22;28703;44.412;11.918;2023-02-28T15:59:27;8.50;99.90
39315;DHT22;28703;44.412;11.918;2023-02-28T16:04:36;8.50;99.90
39315;DHT22;28703;44.412;11.918;2023-02-28T16:07:05;8.50;99.90
39315;DHT22;28703;44.412;11.918;2023-02-28T16:09:31;8.40;99.90
39315;DHT22;28703;44.412;11.918;2023-02-28T16:12:02;8.40;99.90
39315;DHT22;28703;44.412;11.918;2023-02-28T16:14:31;8.40;99.90
39315;DHT22;28703;44.412;11.918;2023-02-28T16:17:06;8.40;99.90
39315;DHT22;28703;44.412;11.918;2023-02-28T16:19:34;8.40;99.90
39315;DHT22;28703;44.412;11.918;2023-02-28T16:22:00;8.30;99.90
39315;DHT22;28703;44.412;11.918;2023-02-28T16:24:26;8.20;99.90
39315;DHT22;28703;44.412;11.918;2023-02-28T16:26:54;8.20;99.90
39315;DHT22;28703;44.412;11.918;2023-02-28T16:29:31;8.20;99.90
39315;DHT22;28703;44.412;11.918;2023-02-28T16:31:57;8.30;99.90
39315;DHT22;28703;44.412;11.918;2023-02-28T16:34:24;8.20;99.90
39315;DHT22;28703;44.412;11.918;2023-02-28T16:36:51;8.10;99.90
39315;DHT22;28703;44.412;11.918;2023-02-28T16:39:17;8.00;99.90
39315;DHT22;28703;44.412;11.918;2023-02-28T16:41:50;8.00;99.90
39315;DHT22;28703;44.412;11.918;2023-02-28T16:44:33;8.10;99.90
39315;DHT22;28703;44.412;11.918;2023-02-28T16:47:00;8.10;99.90
39315;DHT22;28703;44.412;11.918;2023-02-28T16:49:32;8.10;99.90
39315;DHT22;28703;44.412;11.918;2023-02-28T16:52:00;8.10;99.90
39315;DHT22;28703;44.412;11.918;2023-02-28T16:54:30;8.10;99.90
39315;DHT22;28703;44.412;11.918;2023-02-28T16:56:57;8.20;99.90
39315;DHT22;28703;44.412;11.918;2023-02-28T16:59:28;8.20;99.90
39315;DHT22;28703;44.412;11.918;2023-02-28T17:01:58;8.20;99.90
39315;DHT22;28703;44.412;11.918;2023-02-28T17:04:30;8.10;99.90
39315;DHT22;28703;44.412;11.918;2023-02-28T17:06:56;8.10;99.90
39315;DHT22;28703;44.412;11.918;2023-02-28T17:09:23;8.10;99.90
39315;DHT22;28703;44.412;11.918;2023-02-28T17:11:51;8.00;99.90
39315;DHT22;28703;44.412;11.918;2023-02-28T17:14:18;8.00;99.90
39315;DHT22;28703;44.412;11.918;2023-02-28T17:16:44;7.90;99.90
39315;DHT22;28703;44.412;11.918;2023-02-28T17:19:15;8.00;99.90
39315;DHT22;28703;44.412;11.918;2023-02-28T17:21:42;7.90;99.90
39315;DHT22;28703;44.412;11.918;2023-02-28T17:24:08;7.90;99.90
39315;DHT22;28703;44.412;11.918;2023-02-28T17:26:39;7.90;99.90
39315;DHT22;28703;44.412;11.918;2023-02-28T17:29:12;7.90;99.90
39315;DHT22;28703;44.412;11.918;2023-02-28T17:31:38;7.90;99.90
39315;DHT22;28703;44.412;11.918;2023-02-28T17:34:07;7.90;99.90
39315;DHT22;28703;44.412;11.918;2023-02-28T17:36:34;7.90;99.90
39315;DHT22;28703;44.412;11.918;2023-02-28T17:39:01;7.80;99.90
39315;DHT22;28703;44.412;11.918;2023-02-28T17:41:27;7.90;99.90
39315;DHT22;28703;44.412;11.918;2023-02-28T17:43:56;7.90;99.90
39315;DHT22;28703;44.412;11.918;2023-02-28T17:46:23;7.90;99.90
39315;DHT22;28703;44.412;11.918;2023-02-28T17:48:51;8.00;99.90
39315;DHT22;28703;44.412;11.918;2023-02-28T17:51:19;8.00;99.90
39315;DHT22;28703;44.412;11.918;2023-02-28T17:53:45;7.90;99.90
39315;DHT22;28703;44.412;11.918;2023-02-28T17:56:13;7.90;99.90
39315;DHT22;28703;44.412;11.918;2023-02-28T17:58:40;7.90;99.90
39315;DHT22;28703;44.412;11.918;2023-02-28T18:01:05;7.80;99.90
39315;DHT22;28703;44.412;11.918;2023-02-28T18:03:33;7.80;99.90
39315;DHT22;28703;44.412;11.918;2023-02-28T18:05:59;7.80;99.90
39315;DHT22;28703;44.412;11.918;2023-02-28T18:08:26;7.80;99.90
39315;DHT22;28703;44.412;11.918;2023-02-28T18:10:52;7.80;99.90
39315;DHT22;28703;44.412;11.918;2023-02-28T18:13:19;7.80;99.90
39315;DHT22;28703;44.412;11.918;2023-02-28T18:15:45;7.90;99.90